createdAt,value
2023-04-30T00:05:01.154Z,93325.84
2023-04-30T00:10:05.657Z,93322.31
2023-04-30T00:15:09.853Z,93298.72
2023-04-30T00:20:14.535Z,93315.69
2023-04-30T00:25:17.746Z,93300.16
2023-04-30T00:30:22.017Z,93320.81
2023-04-30T00:35:26.077Z,93292.44
2023-04-30T00:40:30.408Z,93259.47
2023-04-30T00:45:34.168Z,93273.84
2023-04-30T00:50:38.736Z,93297.72
2023-04-30T00:55:42.846Z,93296.06
2023-04-30T01:00:47.677Z,93274.97
2023-04-30T01:05:54.419Z,93279.75
2023-04-30T01:11:36.966Z,93290.94
2023-04-30T01:17:32.424Z,93280.28
2023-04-30T01:22:46.642Z,93207.75
2023-04-30T01:27:56.916Z,93234.03
2023-04-30T01:33:02.453Z,93264.50
2023-04-30T01:38:35.694Z,93275.06
2023-04-30T01:44:01.545Z,93274.34
2023-04-30T01:49:17.709Z,93274.34
2023-04-30T01:54:31.710Z,93274.69
2023-04-30T01:59:39.386Z,93266.06
2023-04-30T02:04:43.285Z,93252.97
2023-04-30T02:09:46.773Z,93259.56
2023-04-30T02:14:50.043Z,93256.44
2023-04-30T02:19:54.465Z,93290.16
2023-04-30T02:24:59.280Z,93265.97
2023-04-30T02:30:03.204Z,93267.91
2023-04-30T02:35:07.909Z,93245.78
2023-04-30T02:40:12.318Z,93202.47
2023-04-30T02:45:16.014Z,93209.66
2023-04-30T02:50:19.856Z,93205.03
2023-04-30T02:55:23.762Z,93233.69
2023-04-30T03:00:27.221Z,93263.44
2023-04-30T03:05:30.872Z,93256.72
2023-04-30T03:10:34.966Z,93152.63
2023-04-30T03:15:38.888Z,93125.00
2023-04-30T03:20:42.694Z,93203.56
2023-04-30T03:25:46.926Z,93205.75
2023-04-30T03:30:51.423Z,93137.50
2023-04-30T03:35:55.433Z,93194.09
2023-04-30T03:40:59.042Z,93220.94
2023-04-30T03:46:02.519Z,93238.44
2023-04-30T03:51:06.031Z,93225.50
2023-04-30T03:56:09.893Z,93230.56
2023-04-30T04:01:14.261Z,93237.03
2023-04-30T04:06:18.244Z,93230.81
2023-04-30T04:11:23.197Z,93194.81
2023-04-30T04:16:27.383Z,93238.06
2023-04-30T04:21:32.105Z,93247.09
2023-04-30T04:26:38.296Z,93247.72
2023-04-30T04:31:43.021Z,93257.78
2023-04-30T04:36:48.015Z,93250.41
2023-04-30T04:41:51.845Z,93150.13
2023-04-30T04:46:56.972Z,93245.69
2023-04-30T04:52:00.156Z,93213.03
2023-04-30T04:57:03.744Z,93203.78
2023-04-30T05:02:07.312Z,93184.00
2023-04-30T05:07:11.110Z,93265.53
2023-04-30T05:12:15.734Z,93186.09
2023-04-30T05:17:19.208Z,93188.19
2023-04-30T05:22:22.610Z,93255.16
2023-04-30T05:27:27.753Z,93238.91
2023-04-30T05:32:31.424Z,93273.31
2023-04-30T05:37:35.434Z,93278.03
2023-04-30T05:42:41.083Z,93276.91
2023-04-30T05:47:45.808Z,93257.34
2023-04-30T05:52:50.095Z,93237.78
2023-04-30T05:57:53.959Z,93274.84
2023-04-30T06:02:58.053Z,93196.84
2023-04-30T06:08:01.584Z,93221.69
2023-04-30T06:13:05.425Z,93253.47
2023-04-30T06:18:14.555Z,93263.25
2023-04-30T06:23:18.571Z,93274.53
2023-04-30T06:28:22.243Z,93249.97
2023-04-30T06:33:25.711Z,93195.50
2023-04-30T06:38:30.376Z,93235.16
2023-04-30T06:43:34.090Z,93217.47
2023-04-30T06:48:37.830Z,93179.63
2023-04-30T06:53:41.854Z,93190.34
2023-04-30T06:58:45.435Z,93302.13
2023-04-30T07:03:48.695Z,93249.47
2023-04-30T07:08:52.043Z,93215.06
2023-04-30T07:13:55.581Z,93236.56
2023-04-30T07:19:00.464Z,93304.00
2023-04-30T07:24:03.659Z,93220.16
2023-04-30T07:29:07.120Z,93213.34
2023-04-30T07:34:10.765Z,93217.97
2023-04-30T07:39:14.916Z,93349.72
2023-04-30T07:44:19.425Z,93256.88
2023-04-30T07:49:23.070Z,93307.19
2023-04-30T07:54:27.020Z,93324.94
2023-04-30T07:59:30.964Z,93264.88
2023-04-30T08:04:35.053Z,93281.38
2023-04-30T08:09:38.653Z,93314.16
2023-04-30T08:14:41.790Z,93289.47
2023-04-30T08:19:44.999Z,93265.31
2023-04-30T08:24:48.791Z,93296.56
2023-04-30T08:29:52.571Z,93310.34
2023-04-30T08:34:56.807Z,93233.97
2023-04-30T08:40:01.331Z,93354.91
2023-04-30T08:45:05.508Z,93307.34
2023-04-30T08:50:10.556Z,93286.00
2023-04-30T08:55:13.739Z,93318.84
2023-04-30T09:00:17.680Z,93321.66
2023-04-30T09:05:20.931Z,93291.50
2023-04-30T09:10:25.386Z,93362.50
2023-04-30T09:15:30.883Z,93366.19
2023-04-30T09:20:35.350Z,93359.97
2023-04-30T09:25:43.164Z,93374.88
2023-04-30T09:30:47.248Z,93358.38
2023-04-30T09:35:51.171Z,93325.53
2023-04-30T09:40:55.448Z,93321.31
2023-04-30T09:46:00.508Z,93345.19
2023-04-30T09:51:04.695Z,93354.13
2023-04-30T09:56:09.093Z,93347.06
2023-04-30T10:01:13.033Z,93345.09
2023-04-30T10:06:19.010Z,93334.06
2023-04-30T10:11:24.164Z,93329.41
2023-04-30T10:16:31.148Z,93290.69
2023-04-30T10:21:36.184Z,93285.06
2023-04-30T10:26:40.811Z,93320.91
2023-04-30T10:31:48.322Z,93314.22
2023-04-30T10:37:06.110Z,93316.63
2023-04-30T10:42:12.038Z,93291.81
2023-04-30T10:47:20.138Z,93317.66
2023-04-30T10:52:30.882Z,93320.03
2023-04-30T10:57:44.286Z,93307.16
2023-04-30T11:02:49.062Z,93336.03
2023-04-30T11:07:58.476Z,93341.16
2023-04-30T11:13:07.032Z,93284.22
2023-04-30T11:18:11.178Z,93276.59
2023-04-30T11:23:25.214Z,93282.16
2023-04-30T11:28:38.055Z,93310.75
2023-04-30T11:33:41.869Z,93318.53
2023-04-30T11:38:46.518Z,93321.34
2023-04-30T11:43:50.012Z,93261.00
2023-04-30T11:48:53.622Z,93288.47
2023-04-30T11:53:57.675Z,93260.03
2023-04-30T11:59:01.417Z,93287.34
2023-04-30T12:04:05.965Z,93351.59
2023-04-30T12:09:10.076Z,93336.06
2023-04-30T12:14:15.157Z,93320.22
2023-04-30T12:19:20.515Z,93309.09
2023-04-30T12:24:28.228Z,93329.06
2023-04-30T12:29:31.504Z,93283.66
2023-04-30T12:34:35.239Z,93292.94
2023-04-30T12:39:39.063Z,93255.78
2023-04-30T12:44:45.271Z,93229.94
2023-04-30T12:49:50.539Z,93254.81
2023-04-30T12:54:55.355Z,93296.22
2023-04-30T13:00:00.585Z,93312.47
2023-04-30T13:05:04.392Z,93289.22
2023-04-30T13:10:08.561Z,93278.56
2023-04-30T13:15:12.445Z,93272.41
2023-04-30T13:20:16.498Z,93257.97
2023-04-30T13:25:21.202Z,93250.81
2023-04-30T13:30:25.422Z,93239.84
2023-04-30T13:35:29.521Z,93132.22
2023-04-30T13:40:34.919Z,93114.88
2023-04-30T13:45:39.086Z,93137.91
2023-04-30T13:50:42.322Z,93194.22
2023-04-30T13:55:45.880Z,93211.28
2023-04-30T14:00:49.724Z,93217.97
2023-04-30T14:05:55.145Z,93236.75
2023-04-30T14:10:59.067Z,93204.53
2023-04-30T14:16:03.548Z,93166.31
2023-04-30T14:21:08.300Z,93211.16
2023-04-30T14:26:15.049Z,93205.13
2023-04-30T14:31:18.735Z,93265.91
2023-04-30T14:36:22.748Z,93261.53
2023-04-30T14:41:27.565Z,93145.56
2023-04-30T14:46:32.009Z,93166.63
2023-04-30T14:51:37.000Z,93138.16
2023-04-30T14:56:41.939Z,93144.56
2023-04-30T15:01:46.744Z,93153.81
2023-04-30T15:06:51.717Z,93165.47
2023-04-30T15:11:56.496Z,93185.34
2023-04-30T15:16:59.658Z,93228.56
2023-04-30T15:22:03.720Z,93230.44
2023-04-30T15:27:07.592Z,93247.41
2023-04-30T15:32:11.080Z,93271.03
2023-04-30T15:37:14.162Z,93240.72
2023-04-30T15:42:17.996Z,93277.00
2023-04-30T15:47:23.901Z,93286.94
2023-04-30T15:52:27.708Z,93263.84
2023-04-30T15:57:31.885Z,93278.31
2023-04-30T16:02:36.035Z,93202.88
2023-04-30T16:07:43.928Z,93181.09
2023-04-30T16:12:48.687Z,93175.63
2023-04-30T16:17:53.349Z,93193.13
2023-04-30T16:22:58.070Z,93254.88
2023-04-30T16:28:02.117Z,93241.66
2023-04-30T16:33:06.543Z,93219.41
2023-04-30T16:38:10.200Z,93208.34
2023-04-30T16:43:15.383Z,93199.47
2023-04-30T16:48:18.899Z,93193.66
2023-04-30T16:53:23.040Z,93199.69
2023-04-30T16:58:26.617Z,93198.91
2023-04-30T17:03:31.392Z,93224.78
2023-04-30T17:08:35.051Z,93181.41
2023-04-30T17:13:39.060Z,93229.56
2023-04-30T17:18:42.901Z,93248.75
2023-04-30T17:23:46.656Z,93213.28
2023-04-30T17:28:50.786Z,93247.63
2023-04-30T17:33:55.591Z,93229.25
2023-04-30T17:38:59.715Z,93217.91
2023-04-30T17:44:04.046Z,93168.41
2023-04-30T17:49:08.376Z,93227.84
2023-04-30T17:54:12.591Z,93181.22
2023-04-30T17:59:16.268Z,93165.53
2023-04-30T18:04:20.418Z,93219.06
2023-04-30T18:09:24.219Z,93207.34
2023-04-30T18:14:27.616Z,93211.84
2023-04-30T18:19:32.852Z,93205.25
2023-04-30T18:24:36.736Z,93186.50
2023-04-30T18:29:40.207Z,93204.75
2023-04-30T18:34:44.000Z,93202.53
2023-04-30T18:39:47.665Z,93229.19
2023-04-30T18:44:51.576Z,93237.41
2023-04-30T18:49:55.916Z,93210.25
2023-04-30T18:54:59.732Z,93229.00
2023-04-30T19:00:02.910Z,93207.31
2023-04-30T19:05:07.029Z,93257.22
2023-04-30T19:10:11.105Z,93259.66
2023-04-30T19:15:15.450Z,93258.31
2023-04-30T19:20:18.570Z,93264.53
2023-04-30T19:25:23.748Z,93266.00
2023-04-30T19:33:17.501Z,93270.31
2023-04-30T19:38:22.623Z,93282.16
2023-04-30T19:43:26.905Z,93272.38
2023-04-30T19:48:31.804Z,93272.84
2023-04-30T19:53:35.826Z,93299.00
2023-04-30T19:58:40.215Z,93295.84
2023-04-30T20:03:45.048Z,93289.94
2023-04-30T20:08:49.157Z,93269.19
2023-04-30T20:13:56.628Z,93271.63
2023-04-30T20:18:59.852Z,93271.63
2023-04-30T20:24:04.641Z,93266.09
2023-04-30T20:29:08.688Z,93263.41
2023-04-30T20:34:13.459Z,93247.78
2023-04-30T20:39:18.119Z,93251.25
2023-04-30T20:44:21.519Z,93248.13
2023-04-30T20:49:27.475Z,93263.00
2023-04-30T20:54:31.231Z,93264.91
2023-04-30T20:59:36.909Z,93259.13
2023-04-30T21:04:41.088Z,93253.97
2023-04-30T21:09:44.924Z,93259.44
2023-04-30T21:14:48.155Z,93252.50
2023-04-30T21:19:52.153Z,93249.34
2023-04-30T21:24:56.019Z,93255.19
2023-04-30T21:29:59.243Z,93250.03
2023-04-30T21:35:02.839Z,93243.75
2023-04-30T21:40:07.042Z,93243.34
2023-04-30T21:45:10.986Z,93259.31
2023-04-30T21:50:15.029Z,93252.31
2023-04-30T21:55:18.558Z,93260.50
2023-04-30T22:00:23.042Z,93244.03
2023-04-30T22:05:26.507Z,93247.22
2023-04-30T22:10:31.943Z,93255.03
2023-04-30T22:15:47.096Z,93241.72
2023-04-30T22:20:52.571Z,93239.31
2023-04-30T22:25:56.426Z,93239.31
2023-04-30T22:31:03.153Z,93248.28
2023-04-30T22:36:07.513Z,93248.00
2023-04-30T22:41:11.698Z,93241.34
2023-04-30T22:46:15.714Z,93232.00
2023-04-30T22:51:19.754Z,93242.22
2023-04-30T22:56:23.573Z,93226.56
2023-04-30T23:01:28.387Z,93234.28
2023-04-30T23:06:33.159Z,93243.72
2023-04-30T23:11:37.434Z,93235.06
2023-04-30T23:33:36.803Z,93191.13
2023-04-30T23:38:40.222Z,93149.72
2023-04-30T23:43:43.936Z,93145.13
2023-04-30T23:48:48.068Z,93136.50
2023-04-30T23:53:52.092Z,93138.84
2023-04-30T23:58:56.085Z,93189.06
